To NAV CANADA Home Page Login to a new session Search on AWWS site Feedback and Comments Disclaimer Vers la page française équivalente Tips FAQ What's new on the site To the Forecasts and Observations / NOTAM section To "File a Flight Plan" website Publications and other links Update of the User's profile FIC Telephone Numbers My Weather Data Folder Route Weather Data Regional Weather Data Local Weather Data To the Forecasts and Observations / NOTAM section
Request Generated 09/27/2016 at 13:46:22 UTC . Weather information available at that time is displayed.

METAR/TAF

CALGARY/SPRINGBANK/AB    (show WxCam)

METAR CYBW 271300Z AUTO VRB07KT 9SM CLR 06/04 A2988 RMK SLP127=
METAR CYBW 271200Z AUTO VRB02KT 9SM CLR 07/04 A2987 RMK SLP117=
METAR CYBW 271100Z AUTO 25003KT 210V320 9SM CLR 08/04 A2987 RMK
SLP117 DENSITY ALT 4000FT=

TAF CYBW 271138Z 2712/2724 VRB03KT P6SM SKC
BECMG 2715/2717 01010G20KT
FM271700 01010G20KT P6SM SCT050 BKN090
FM272200 01010G20KT P6SM SCT060
RMK FCST BASED ON AUTO OBS. NXT FCST BY 271800Z=
Your time UTC time
Weather data provided by Environment Canada and NAV CANADA